Terminal Aerodrome Forecast
Issued by NWS

Home | Current Version | Previous Version | Text Only | Print | Product List | Glossary Off
Versions: 1 2 3 4 5 6 7 8 9 10 11 12 13 14 15 16 17 18 19 20 21

785
FTUS43 KFGF 230219 AAA
TAFBJI
TAF AMD
KBJI 230219Z 2302/2324 01012KT P6SM BKN080
     FM230400 01009KT P6SM SCT020 BKN040
     FM230600 02009KT 5SM -RASN BKN015
     FM230900 03008KT 3SM -SN OVC012
     FM231300 06008KT 5SM -SN BR OVC015
     FM231700 08009KT P6SM OVC015=

USA.gov is the U.S. government's official web portal to all federal, state and local government web resources and services.